Time;durP1;ratioP1;P1;durP2;ratioP2;P2;SDS_P1;SDS_P2;PMS_P1;PMS_P2;Temp;Humidity;BMP_temperature;BMP_pressure;BME280_temperature;BME280_humidity;BME280_pressure;Samples;Min_cycle;Max_cycle;Signal;HPM_P1;HPM_P2
2022/06/24 00:01:12;;;;;;;19.13;12.50;;;23.60;71.40;;;;;;5013683;28;20057;-56
2022/06/24 00:03:38;;;;;;;16.52;11.77;;;23.60;71.60;;;;;;4996083;28;20026;-56
2022/06/24 00:06:13;;;;;;;16.08;11.77;;;23.60;71.10;;;;;;5013559;28;20395;-57
2022/06/24 00:08:51;;;;;;;18.10;11.95;;;23.50;71.30;;;;;;5013194;28;20437;-56
2022/06/24 00:11:20;;;;;;;;;;;23.50;71.40;;;;;;5014184;28;20397;-55
2022/06/24 00:13:46;;;;;;;16.13;11.70;;;23.40;71.70;;;;;;5013907;28;19992;-57
2022/06/24 00:16:12;;;;;;;16.35;12.10;;;23.40;72.10;;;;;;5013925;28;20053;-54
2022/06/24 00:18:37;;;;;;;19.60;12.45;;;23.30;72.60;;;;;;5012433;28;20625;-54
2022/06/24 00:21:12;;;;;;;16.58;12.50;;;23.20;73.20;;;;;;4996173;28;20026;-53
2022/06/24 00:23:42;;;;;;;17.23;12.80;;;23.10;73.60;;;;;;5013573;28;20497;-52
2022/06/24 00:26:08;;;;;;;19.88;12.35;;;23.00;74.30;;;;;;5013667;28;20034;-50
2022/06/24 00:28:33;;;;;;;17.20;11.82;;;22.90;74.40;;;;;;5012821;28;20131;-57
2022/06/24 00:31:02;;;;;;;17.83;12.48;;;22.80;74.80;;;;;;5013689;28;20103;-56
2022/06/24 00:33:33;;;;;;;17.60;11.70;;;22.70;75.10;;;;;;5013322;28;20017;-57
2022/06/24 00:35:59;;;;;;;18.15;12.77;;;22.70;75.50;;;;;;5013513;28;20028;-58
2022/06/24 00:38:31;;;;;;;18.38;12.20;;;;;;;;;;5012348;28;20034;-56
2022/06/24 00:41:01;;;;;;;17.40;12.40;;;;;;;;;;4995751;28;20124;-53
2022/06/24 00:43:30;;;;;;;16.67;11.68;;;;;;;;;;5013091;28;20029;-57
2022/06/24 00:45:59;;;;;;;17.13;12.27;;;;;;;;;;4995562;28;20064;-55
2022/06/24 00:48:25;;;;;;;;;;;;;;;;;;5012817;28;20025;-57
2022/06/24 00:50:51;;;;;;;18.25;12.18;;;;;;;;;;5013148;28;19905;-57
2022/06/24 00:53:17;;;;;;;17.55;12.45;;;;;;;;;;5013190;28;20495;-52
2022/06/24 00:55:43;;;;;;;17.38;11.90;;;;;;;;;;5013529;28;20054;-57
2022/06/24 00:58:16;;;;;;;16.88;12.25;;;;;;;;;;5012417;28;20426;-57
2022/06/24 01:00:43;;;;;;;17.23;11.98;;;;;;;;;;5012922;28;20041;-55
2022/06/24 01:03:09;;;;;;;17.05;12.15;;;;;;;;;;5012899;28;20026;-56
2022/06/24 01:05:35;;;;;;;16.02;12.00;;;;;;;;;;5012775;28;20068;-57
2022/06/24 01:08:08;;;;;;;16.10;11.90;;;;;;;;;;5012117;28;20022;-56
2022/06/24 01:10:34;;;;;;;16.45;11.85;;;;;;;;;;4995210;28;20366;-55
2022/06/24 01:13:00;;;;;;;17.42;12.88;;;;;;;;;;5012918;28;20316;-59
2022/06/24 01:15:27;;;;;;;16.85;11.90;;;;;;;;;;5012658;28;20105;-56
2022/06/24 01:17:53;;;;;;;18.20;12.52;;;;;;;;;;5036726;23;20037;-64
2022/06/24 01:20:19;;;;;;;16.52;12.32;;;;;;;;;;5028820;28;20052;-62
2022/06/24 01:22:45;;;;;;;18.88;12.55;;;;;;;;;;5031020;28;20029;-62
2022/06/24 01:25:11;;;;;;;16.00;11.88;;;;;;;;;;5030859;28;20025;-62
2022/06/24 01:27:38;;;;;;;19.02;12.90;;;;;;;;;;5030597;28;20026;-62
2022/06/24 01:30:05;;;;;;;19.63;12.65;;;;;;;;;;5030306;28;20446;-62
2022/06/24 01:32:31;;;;;;;16.80;12.25;;;;;;;;;;5030947;28;20139;-62
2022/06/24 01:34:57;;;;;;;19.73;12.60;;;;;;;;;;5030955;28;20116;-62
2022/06/24 01:37:24;;;;;;;17.17;12.32;;;;;;;;;;5030233;28;20026;-62
2022/06/24 01:39:50;;;;;;;17.10;12.02;;;;;;;;;;5030893;28;20144;-62
2022/06/24 01:42:16;;;;;;;18.75;12.80;;;;;;;;;;5030833;28;20088;-62
2022/06/24 01:44:42;;;;;;;15.70;12.25;;;;;;;;;;5030571;28;20037;-63
2022/06/24 01:47:08;;;;;;;19.77;12.60;;;;;;;;;;5012242;28;20529;-61
2022/06/24 01:49:35;;;;;;;18.23;12.25;;;;;;;;;;5012435;28;20126;-63
2022/06/24 01:52:01;;;;;;;16.80;12.02;;;;;;;;;;5030816;28;20032;-63
2022/06/24 01:54:27;;;;;;;16.88;12.07;;;;;;;;;;5030665;28;20021;-63
2022/06/24 01:56:53;;;;;;;18.65;11.73;;;;;;;;;;5013000;28;20037;-62
2022/06/24 01:59:20;;;;;;;16.98;11.73;;;;;;;;;;5029783;28;20196;-63
2022/06/24 02:01:46;;;;;;;16.13;11.88;;;;;;;;;;5030572;28;20033;-63
2022/06/24 02:04:12;;;;;;;17.52;12.38;;;;;;;;;;5030687;28;20424;-63
2022/06/24 02:06:39;;;;;;;19.75;12.20;;;;;;;;;;5030420;28;20095;-63
2022/06/24 02:09:05;;;;;;;16.63;11.77;;;;;;;;;;5029789;28;20385;-63
2022/06/24 02:14:17;;;;;;;18.15;12.25;;;;;;;;;;5030631;28;20095;-63
2022/06/24 02:16:43;;;;;;;17.50;12.00;;;;;;;;;;5030523;28;20405;-63
2022/06/24 02:19:09;;;;;;;17.33;11.90;;;;;;;;;;5029457;28;20035;-63
2022/06/24 02:21:35;;;;;;;16.05;12.02;;;;;;;;;;5030424;28;20018;-63
2022/06/24 02:24:01;;;;;;;19.92;12.27;;;;;;;;;;5030322;28;20029;-63
2022/06/24 02:26:27;;;;;;;16.17;12.73;;;;;;;;;;5030289;28;20025;-63
2022/06/24 02:28:54;;;;;;;17.42;12.45;;;;;;;;;;5029388;28;20026;-63
2022/06/24 02:31:20;;;;;;;17.65;12.10;;;;;;;;;;5012384;28;20045;-64
2022/06/24 02:33:46;;;;;;;17.60;12.25;;;;;;;;;;5030419;28;20028;-65
2022/06/24 02:36:12;;;;;;;17.65;12.27;;;;;;;;;;5029227;28;20116;-63
2022/06/24 02:38:38;;;;;;;16.88;12.20;;;;;;;;;;5029239;28;20022;-63
2022/06/24 02:41:04;;;;;;;16.73;12.13;;;;;;;;;;5030486;28;20025;-63
2022/06/24 02:43:32;;;;;;;17.08;12.20;;;;;;;;;;5033950;28;20493;-63
2022/06/24 02:46:06;;;;;;;17.77;12.27;;;;;;;;;;5033904;28;20037;-63
2022/06/24 02:48:33;;;;;;;19.20;12.35;;;;;;;;;;5032919;28;20271;-63
2022/06/24 02:51:00;;;;;;;18.30;12.57;;;;;;;;;;5033853;28;20079;-64
2022/06/24 02:53:27;;;;;;;17.98;13.00;;;;;;;;;;5033760;28;20017;-63
2022/06/24 02:55:54;;;;;;;19.10;13.13;;;;;;;;;;5033763;28;20036;-63
2022/06/24 02:58:20;;;;;;;16.85;13.23;;;;;;;;;;5032799;28;20103;-63
2022/06/24 03:00:46;;;;;;;20.42;13.75;;;;;;;;;;5033563;28;20464;-64
2022/06/24 03:03:13;;;;;;;18.50;13.18;;;;;;;;;;5033780;28;20051;-63
2022/06/24 03:05:40;;;;;;;19.73;13.32;;;;;;;;;;5033464;28;20394;-63
2022/06/24 03:08:06;;;;;;;20.60;13.27;;;;;;;;;;5015130;28;20479;-63
2022/06/24 03:10:32;;;;;;;20.02;13.35;;;;;;;;;;5033487;28;20070;-63
2022/06/24 03:12:58;;;;;;;24.95;14.55;;;;;;;;;;5015415;28;20103;-63
2022/06/24 03:15:24;;;;;;;21.90;14.23;;;;;;;;;;5033227;28;20057;-63
2022/06/24 03:17:50;;;;;;;23.25;14.10;;;;;;;;;;5032399;28;20105;-63
2022/06/24 03:20:16;;;;;;;21.67;14.60;;;;;;;;;;5015416;28;20065;-63
2022/06/24 03:22:42;;;;;;;22.45;15.90;;;;;;;;;;5033354;28;20022;-64
2022/06/24 03:25:09;;;;;;;24.33;16.67;;;;;;;;;;5015244;28;20024;-63
2022/06/24 03:27:35;;;;;;;26.02;17.77;;;;;;;;;;5031914;28;20061;-63
2022/06/24 03:30:01;;;;;;;26.08;19.90;;;;;;;;;;5032757;28;20025;-63
2022/06/24 03:32:28;;;;;;;29.80;21.38;;;;;;;;;;5032807;28;20028;-63
2022/06/24 03:34:54;;;;;;;32.33;21.65;;;;;;;;;;5033075;28;20404;-63
2022/06/24 03:37:20;;;;;;;30.02;21.48;;;;;;;;;;5031948;28;20109;-62
2022/06/24 03:39:46;;;;;;;28.77;20.63;;;;;;;;;;5032576;28;20065;-65
2022/06/24 03:42:12;;;;;;;25.80;20.00;;;;;;;;;;5015099;28;20033;-62
2022/06/24 03:44:38;;;;;;;26.85;20.45;;;;;;;;;;5033163;28;20017;-62
2022/06/24 03:47:04;;;;;;;27.40;18.80;;;;;;;;;;5014738;28;20509;-62
2022/06/24 03:49:30;;;;;;;23.73;18.63;;;;;;;;;;5014264;28;20025;-63
2022/06/24 03:51:56;;;;;;;24.70;17.65;;;;;;;;;;5033090;28;20022;-63
2022/06/24 03:54:22;;;;;;;27.90;16.90;;;;;;;;;;5031787;28;20104;-64
2022/06/24 03:56:48;;;;;;;26.77;17.75;;;;;;;;;;5032478;28;20044;-64
2022/06/24 03:59:14;;;;;;;23.67;17.90;;;;;;;;;;5031982;28;20480;-64
2022/06/24 04:01:40;;;;;;;20.75;16.20;;;;;;;;;;5032648;28;20029;-64
2022/06/24 04:04:06;;;;;;;20.52;16.52;;;;;;;;;;5032482;28;20030;-64
2022/06/24 04:06:32;;;;;;;22.33;16.48;;;;;;;;;;5032556;28;20565;-64
2022/06/24 04:08:58;;;;;;;23.35;18.30;;;;;;;;;;5031486;28;20441;-64
2022/06/24 04:11:24;;;;;;;22.77;17.80;;;;;;;;;;5032263;28;20093;-64
2022/06/24 04:16:57;;;;;;;25.42;17.58;;;;;;;;;;4938492;28;20386;-63
2022/06/24 04:19:23;;;;;;;24.00;17.73;;;;;;;;;;5031309;28;20038;-62
2022/06/24 04:21:49;;;;;;;22.73;17.98;;;;;;;;;;5014257;28;20386;-64
2022/06/24 04:24:15;;;;;;;22.90;17.80;;;;;;;;;;5032520;28;20105;-64
2022/06/24 04:26:41;;;;;;;23.02;17.65;;;;;;;;;;5032224;28;20432;-63
2022/06/24 04:29:07;;;;;;;22.23;17.95;;;;;;;;;;5031582;28;20057;-63
2022/06/24 04:31:33;;;;;;;25.55;17.73;;;;;;;;;;5032015;28;20512;-63
2022/06/24 04:33:59;;;;;;;21.98;18.58;;;;;;;;;;5031876;28;20022;-63
2022/06/24 04:36:24;;;;;;;21.92;18.40;;;;;;;;;;5031990;28;20109;-63
2022/06/24 04:38:50;;;;;;;23.38;19.58;;;;;;;;;;5030807;28;20064;-63
2022/06/24 04:41:16;;;;;;;23.10;17.92;;;;;;;;;;5031570;28;20034;-63
2022/06/24 04:43:43;;;;;;;22.60;18.40;;;;;;;;;;5031699;28;20037;-63
2022/06/24 04:46:09;;;;;;;24.30;19.05;;;;;;;;;;5031666;28;20089;-63
2022/06/24 04:48:38;;;;;;;46.38;42.67;;;;;;;;;;5030483;28;20025;-63
2022/06/24 04:51:05;;;;;;;53.20;49.40;;;;;;;;;;5031638;28;20079;-63
2022/06/24 04:53:32;;;;;;;56.83;52.78;;;;;;;;;;5013517;28;20049;-63
2022/06/24 04:55:58;;;;;;;55.85;51.75;;;;;;;;;;5031311;28;20474;-62
2022/06/24 04:58:24;;;;;;;56.00;51.78;;;;;;;;;;5030286;28;20120;-59
2022/06/24 05:00:50;;;;;;;56.65;52.35;;;;;;;;;;5030919;28;20425;-62
2022/06/24 05:03:16;;;;;;;52.33;48.28;;;;;;;;;;5031038;28;20025;-62
2022/06/24 05:05:42;;;;;;;47.25;43.65;;;;;;;;;;5030965;28;20250;-62
2022/06/24 05:08:09;;;;;;;45.53;41.90;;;;;;;;;;5030046;28;20146;-62
2022/06/24 05:10:35;;;;;;;46.08;42.47;;;;;;;;;;5030668;28;20144;-63
2022/06/24 05:13:01;;;;;;;57.90;53.72;;;;;;;;;;5030955;28;20481;-61
2022/06/24 05:15:27;;;;;;;54.85;50.45;;;;;;;;;;5030585;28;20026;-63
2022/06/24 05:17:53;;;;;;;52.15;47.97;;;;;;;;;;5029680;28;20066;-62
2022/06/24 05:20:19;;;;;;;52.45;48.45;;;;;;;;;;5030752;28;20096;-62
2022/06/24 05:22:45;;;;;;;51.35;47.45;;;;;;;;;;5031017;28;20152;-62
2022/06/24 05:25:11;;;;;;;53.15;49.03;;;;;;;;;;5030212;28;20025;-63
2022/06/24 05:27:37;;;;;;;54.25;50.22;;;;;;;;;;5029764;28;20021;-63
2022/06/24 05:30:03;;;;;;;52.55;48.10;;;;;;;;;;5030733;28;20121;-63
2022/06/24 05:32:29;;;;;;;52.03;48.13;;;;;;;;;;5030578;28;20041;-62
2022/06/24 05:34:56;;;;;;;53.13;48.83;;;;;;;;;;5030726;28;20063;-62
2022/06/24 05:37:22;;;;;;;51.58;47.75;;;;;;;;;;5029924;28;20033;-62
2022/06/24 05:39:48;;;;;;;53.20;49.00;;;;;;;;;;5030629;28;20087;-62
2022/06/24 05:42:14;;;;;;;51.80;47.65;;;;;;;;;;5030425;28;20025;-62
2022/06/24 05:44:40;;;;;;;49.95;45.80;;;;;;;;;;5030566;28;20025;-62
2022/06/24 05:47:06;;;;;;;50.67;46.88;;;;;;;;;;5030312;28;20026;-62
2022/06/24 05:49:32;;;;;;;59.33;54.72;;;;;;;;;;5029855;28;20060;-62
2022/06/24 05:51:58;;;;;;;56.35;52.10;;;;;;;;;;5030537;28;20054;-61
2022/06/24 05:57:08;;;;;;;55.03;50.38;;;;;;;;;;5030335;28;20124;-59
2022/06/24 05:59:38;;;;;;;62.40;56.92;;;;;;;;;;5029801;28;20036;-63
2022/06/24 06:02:06;;;;;;;71.53;65.80;;;;;;;;;;5030405;28;20056;-63
2022/06/24 06:04:32;;;;;;;76.85;70.60;;;;;;;;;;5030753;28;20370;-63
2022/06/24 06:06:58;;;;;;;85.22;78.15;;;;;;;;;;5030498;28;20029;-62
2022/06/24 06:09:24;;;;;;;83.60;76.72;;;;;;;;;;5011915;28;20029;-62
2022/06/24 06:11:50;;;;;;;81.88;75.38;;;;;;;;;;5012569;28;20069;-62
2022/06/24 06:14:16;;;;;;;78.88;72.47;;;;;;;;;;5030277;28;20056;-62
2022/06/24 06:16:42;;;;;;;79.55;72.82;;;;;;;;;;5031522;28;20025;-60
2022/06/24 06:19:08;;;;;;;76.05;69.82;;;;;;;;;;5033303;28;20037;-62
2022/06/24 06:21:35;;;;;;;76.05;69.45;;;;;;;;;;5034274;28;20098;-61
2022/06/24 06:24:01;;;;;;;70.22;64.28;;;;;;;;;;5033784;28;20030;-61
2022/06/24 06:26:29;;;;;;;70.97;64.55;;;;;;;;;;5033602;28;20026;-62
2022/06/24 06:28:55;;;;;;;68.80;63.03;;;;;;;;;;5033153;28;20021;-64
2022/06/24 06:31:21;;;;;;;70.35;64.28;;;;;;;;;;5033817;28;20022;-63
2022/06/24 06:33:47;;;;;;;68.32;61.88;;;;;;;;;;5016106;28;20036;-62
2022/06/24 06:36:15;;;;;;;67.93;62.28;;;;;;;;;;5034041;28;20033;-62
2022/06/24 06:38:41;;;;;;;;;;;;;;;;;;5030708;28;20071;-62
2022/06/24 06:41:07;;;;;;;66.18;60.63;;;;;;;;;;5019566;28;19906;-62
2022/06/24 06:43:33;;;;;;;61.72;56.70;;;;;;;;;;5030169;28;20029;-61
2022/06/24 06:45:59;;;;;;;61.90;56.83;;;;;;;;;;5032492;28;20021;-58
2022/06/24 06:48:25;;;;;;;62.22;56.95;;;;;;;;;;5013109;28;20018;-63
2022/06/24 06:50:58;;;;;;;62.47;57.00;;;;;;;;;;5014099;28;20150;-64
2022/06/24 06:53:28;;;;;;;62.35;57.13;;;;;;;;;;4996057;28;20018;-62
2022/06/24 06:55:54;;;;;;;61.03;55.65;;;;;;;;;;5025955;28;20132;-62
2022/06/24 06:58:24;;;;;;;59.67;54.92;;;;;;;;;;5032826;28;20025;-63
2022/06/24 07:00:50;;;;;;;59.42;54.67;;;;;;;;;;5033289;28;20025;-62
2022/06/24 07:03:16;;;;;;;59.47;54.38;;;;;;;;;;5033131;28;20171;-63
2022/06/24 07:05:43;;;;;;;57.70;52.88;;;;;;;;;;5033285;28;20372;-62
2022/06/24 07:08:11;;;;;;;57.38;52.65;;;;;;;;;;5032182;28;20021;-62
2022/06/24 07:10:37;;;;;;;57.13;52.63;;;;;;;;;;5033395;28;20030;-63
2022/06/24 07:13:03;;;;;;;54.13;49.72;;;;;;;;;;5020249;28;20112;-62
2022/06/24 07:15:29;;;;;;;55.78;51.17;;;;;;;;;;5013669;28;20026;-63
2022/06/24 07:17:55;;;;;;;56.83;51.85;;;;;;;;;;5012472;28;20084;-62
2022/06/24 07:20:21;;;;;;;53.67;49.38;;;;;;;;;;5029146;23;20084;-59
2022/06/24 07:22:47;;;;;;;51.13;47.08;;;;;;;;;;5014480;28;20083;-58
2022/06/24 07:25:13;;;;;;;49.45;45.65;;;;;;;;;;4996827;28;20018;-57
2022/06/24 07:27:39;;;;;;;52.45;48.10;;;;;;;;;;5012958;28;20393;-58
2022/06/24 07:30:05;;;;;;;47.47;43.78;;;;;;;;;;5014072;28;20022;-57
2022/06/24 07:32:32;;;;;;;48.58;44.90;;;;;;;;;;5014398;28;20014;-58
2022/06/24 07:34:57;;;;;;;48.90;45.20;;;;;;;;;;5014377;28;20026;-59
2022/06/24 07:37:23;;;;;;;49.15;45.55;;;;;;;;;;5013612;28;20080;-57
2022/06/24 07:39:49;;;;;;;49.60;45.90;;;;;;;;;;5014133;28;20087;-59
2022/06/24 07:42:15;;;;;;;49.70;46.10;;;;;;;;;;5014206;28;20022;-57
2022/06/24 07:44:42;;;;;;;48.45;44.78;;;;;;;;;;5014097;28;20542;-58
2022/06/24 07:47:09;;;;;;;45.08;41.65;;;;;;;;;;4995778;28;20079;-59
2022/06/24 07:49:35;;;;;;;44.25;40.63;;;;;;;;;;4995862;28;20030;-59
2022/06/24 07:52:01;;;;;;;42.80;39.55;;;;;;;;;;5014071;28;20030;-60
2022/06/24 07:54:27;;;;;;;39.55;36.55;;;;;;;;;;5014123;28;20461;-59
2022/06/24 07:56:59;;;;;;;34.97;32.08;;;;;;;;;;5014106;28;20048;-61
2022/06/24 07:59:29;;;;;;;31.00;28.48;;;;;;;;;;5013011;28;20101;-60
2022/06/24 08:01:55;;;;;;;29.08;26.40;;;;;;;;;;5013912;28;20045;-61
2022/06/24 08:04:23;;;;;;;27.42;24.92;;;;;;;;;;5013604;28;20083;-59
2022/06/24 08:06:52;;;;;;;28.20;25.42;;;;;;;;;;4995964;28;20053;-61
2022/06/24 08:09:19;;;;;;;28.20;25.58;;;;;;;;;;5013062;28;20054;-60
2022/06/24 08:11:45;;;;;;;27.50;24.85;;;;;;;;;;5013260;28;20022;-60
2022/06/24 08:14:12;;;;;;;27.60;24.75;;;;;;;;;;4995887;28;20022;-58
2022/06/24 08:16:38;;;;;;;25.60;23.05;;;;;;;;;;5013525;28;20227;-60
2022/06/24 08:19:04;;;;;;;26.13;23.73;;;;;;;;;;4658735;28;10000276;-60
2022/06/24 08:21:30;;;;;;;25.00;22.60;;;;;;;;;;5010256;28;20063;-60
2022/06/24 08:23:56;;;;;;;24.10;21.80;;;;;;;;;;5010247;28;20026;-60
2022/06/24 08:26:22;;;;;;;24.15;21.75;;;;;;;;;;5009229;28;20032;-60
2022/06/24 08:28:48;;;;;;;23.45;21.25;;;;;;;;;;4990434;28;20429;-60
2022/06/24 08:31:14;;;;;;;24.02;21.70;;;;;;;;;;4991638;28;20105;-60
2022/06/24 08:33:40;;;;;;;25.05;22.52;;;;;;;;;;4996112;28;20050;-61
2022/06/24 08:36:06;;;;;;;23.63;20.67;;;;;;;;;;4989328;28;20034;-58
2022/06/24 08:38:33;;;;;;;22.83;20.50;;;;;;;;;;5013440;28;20431;-60
2022/06/24 08:41:01;;;;;;;21.48;19.23;;;;;;;;;;5014219;28;20097;-60
2022/06/24 08:43:30;;;;;;;20.98;18.55;;;;;;;;;;5013531;28;20029;-57
2022/06/24 08:45:57;;;;;;;22.60;18.05;;;;;;;;;;4995642;28;20030;-62
2022/06/24 08:48:24;;;;;;;19.35;15.27;;;;;;;;;;5013378;28;20115;-61
2022/06/24 08:50:50;;;;;;;18.42;14.60;;;;;;;;;;5014580;28;20382;-59
2022/06/24 08:53:17;;;;;;;19.98;14.80;;;;;;;;;;5002662;28;20039;-61
2022/06/24 08:55:48;;;;;;;20.08;15.50;;;;;;;;;;4976067;28;20018;-61
2022/06/24 08:58:14;;;;;;;18.95;14.25;;;;;;;;;;4993076;28;20018;-60
2022/06/24 09:00:41;;;;;;;21.40;15.75;;;;;;;;;;4993440;28;20029;-61
2022/06/24 09:03:07;;;;;;;19.50;15.07;;;;;;;;;;4992904;28;20038;-58
2022/06/24 09:05:33;;;;;;;18.95;15.20;;;;;;;;;;4993196;28;20048;-61
2022/06/24 09:08:02;;;;;;;18.13;15.35;;;;;;;;;;4992712;28;20101;-61
2022/06/24 09:10:28;;;;;;;19.08;15.13;;;;;;;;;;4992805;28;20053;-61
2022/06/24 09:12:54;;;;;;;19.63;14.90;;;;;;;;;;5003665;28;20022;-61
2022/06/24 09:15:21;;;;;;;17.63;14.23;;;;;;;;;;5012362;28;20052;-61
2022/06/24 09:17:47;;;;;;;17.55;14.18;;;;;;;;;;4994009;28;20033;-61
2022/06/24 09:20:13;;;;;;;21.08;14.27;;;;;;;;;;4994373;28;20551;-61
2022/06/24 09:22:39;;;;;;;19.23;14.15;;;;;;;;;;5012237;28;20156;-61
2022/06/24 09:25:06;;;;;;;18.77;14.13;;;;;;;;;;5012455;28;20056;-61
2022/06/24 09:27:32;;;;;;;22.58;15.65;;;;;;;;;;5011284;28;20022;-61
2022/06/24 09:29:58;;;;;;;18.83;14.93;;;;;;;;;;5012046;28;20129;-60
2022/06/24 09:32:24;;;;;;;19.35;14.63;;;;;;;;;;4994595;28;20029;-60
2022/06/24 09:35:03;;;;;;;19.35;13.70;;;;;;;;;;5012141;28;20026;-61
2022/06/24 09:37:29;;;;;;;;;;;;;;;;;;5012032;28;20026;-60
2022/06/24 09:39:55;;;;;;;19.00;13.10;;;;;;;;;;5013057;28;19912;-59
2022/06/24 09:42:21;;;;;;;19.00;12.20;;;;;;;;;;4994399;28;20030;-62
2022/06/24 09:44:47;;;;;;;20.45;12.52;;;;;;;;;;5013557;28;20033;-61
2022/06/24 09:47:13;;;;;;;19.38;12.05;;;;;;;;;;5012717;28;20068;-60
2022/06/24 09:49:39;;;;;;;18.27;11.73;;;;;;;;;;5013479;28;20018;-61
2022/06/24 09:52:05;;;;;;;18.65;12.45;;;;;;;;;;5013327;28;20075;-61
2022/06/24 09:54:32;;;;;;;19.20;12.73;;;;;;;;;;5013183;28;20022;-60
2022/06/24 09:56:59;;;;;;;18.33;12.77;;;;;;;;;;5015046;28;20030;-57
2022/06/24 10:02:14;;;;;;;20.55;14.82;;;;;;;;;;5015045;28;20041;-56
2022/06/24 10:04:40;;;;;;;20.13;15.88;;;;;;;;;;5013619;28;20034;-56
2022/06/24 10:07:06;;;;;;;21.15;15.77;;;;;;;;;;5012904;28;20026;-57
2022/06/24 10:09:35;;;;;;;21.75;17.25;;;;;;;;;;5017419;28;20042;-56
2022/06/24 10:12:00;;;;;;;;;;;;;;;;;;5030029;28;20148;-58
2022/06/24 10:14:28;;;;;;;22.17;18.45;;;;;;;;;;5013434;28;19932;-60
2022/06/24 10:16:58;;;;;;;21.70;17.67;;;;;;;;;;4730888;28;10000406;-57
2022/06/24 10:19:25;;;;;;;22.35;18.10;;;;;;;;;;5009064;28;20252;-59
2022/06/24 10:21:51;;;;;;;21.17;18.23;;;;;;;;;;5010443;28;20101;-58
2022/06/24 10:24:17;;;;;;;21.20;17.45;;;;;;;;;;5009153;28;20077;-57
2022/06/24 10:26:45;;;;;;;21.92;18.20;;;;;;;;;;5009966;28;20022;-57
2022/06/24 10:29:14;;;;;;;21.85;17.15;;;;;;;;;;5008964;28;20030;-57
2022/06/24 10:31:52;;;;;;;20.15;15.68;;;;;;;;;;5011743;28;20040;-60
2022/06/24 10:34:21;;;;;;;21.33;16.25;;;;;;;;;;5010383;28;20106;-57
2022/06/24 10:36:47;;;;;;;21.63;16.42;;;;;;;;;;5010715;28;20034;-58
2022/06/24 10:39:17;;;;;;;20.45;15.85;;;;;;;;;;4995598;28;20386;-57
2022/06/24 10:41:44;;;;;;;19.77;14.30;;;;;;;;;;4991375;28;20026;-60
2022/06/24 10:44:28;;;;;;;18.63;14.35;;;;;;;;;;4972196;28;20054;-58
2022/06/24 10:47:14;;;;;;;19.33;13.65;;;;;;;;;;4989209;28;20025;-59
2022/06/24 10:49:52;;;;;;;19.27;13.93;;;;;;;;;;4980794;28;20099;-57
2022/06/24 10:53:00;;;;;;;17.27;12.77;;;;;;;;;;5011739;28;20030;-63
2022/06/24 10:55:32;;;;;;;17.87;13.23;;;;;;;;;;4555958;29;9999808;-62
2022/06/24 10:58:05;;;;;;;16.60;12.13;;;;;;;;;;4997392;28;20478;-61
2022/06/24 11:00:37;;;;;;;17.88;11.65;;;;;;;;;;5008871;28;20467;-63
2022/06/24 11:03:03;;;;;;;16.67;11.27;;;;;;;;;;5009122;28;20045;-61
2022/06/24 11:05:34;;;;;;;15.60;11.02;;;;;;;;;;5014331;28;20022;-59
2022/06/24 11:08:00;;;;;;;16.70;11.43;;;;;;;;;;5015925;28;20048;-59
2022/06/24 11:10:29;;;;;;;16.45;11.70;;;;;;;;;;5016654;28;20052;-60
2022/06/24 11:12:59;;;;;;;16.23;10.95;;;;;;;;;;5016109;28;20021;-59
2022/06/24 11:15:37;;;;;;;14.82;10.57;;;;;;;;;;5016712;28;20103;-61
2022/06/24 11:18:12;;;;;;;17.05;12.38;;;;;;;;;;5013963;28;20021;-62
2022/06/24 11:20:39;;;;;;;16.02;11.18;;;;;;;;;;5014264;28;20469;-59
2022/06/24 11:23:09;;;;;;;15.45;11.30;;;;;;;;;;5013184;28;20018;-61
2022/06/24 11:25:35;;;;;;;17.33;10.98;;;;;;;;;;5014410;28;20553;-60
2022/06/24 11:28:02;;;;;;;17.30;10.38;;;;;;;;;;5013694;28;20041;-60
2022/06/24 11:30:28;;;;;;;15.40;10.60;;;;;;;;;;5015030;28;20030;-60
2022/06/24 11:32:58;;;;;;;16.48;10.82;;;;;;;;;;5015091;28;20029;-60
2022/06/24 11:35:24;;;;;;;15.63;10.30;;;;;;;;;;5015085;28;20014;-60
2022/06/24 11:37:50;;;;;;;16.70;10.52;;;;;;;;;;5013744;28;20028;-60
2022/06/24 11:40:35;;;;;;;15.02;10.27;;;;;;;;;;5014755;28;20030;-60
2022/06/24 11:43:06;;;;;;;15.65;11.48;;;;;;;;;;4996907;28;20098;-60
2022/06/24 11:45:33;;;;;;;15.15;10.02;;;;;;;;;;5014861;28;20109;-60
2022/06/24 11:47:59;;;;;;;15.30;10.40;;;;;;;;;;5013719;28;20498;-59
2022/06/24 11:50:25;;;;;;;15.40;10.40;;;;;;;;;;5015009;28;20018;-59
2022/06/24 11:52:51;;;;;;;16.90;11.50;;;;;;;;;;5013833;28;20025;-62
2022/06/24 11:55:30;;;;;;;16.23;11.35;;;;;;;;;;5014317;28;20067;-60
2022/06/24 11:57:57;;;;;;;16.05;11.00;;;;;;;;;;5013720;28;20246;-60
2022/06/24 12:00:24;;;;;;;16.40;11.43;;;;;;;;;;5028777;28;20025;-58
2022/06/24 12:02:51;;;;;;;16.10;11.38;;;;;;;;;;5027604;28;20513;-58
2022/06/24 12:05:17;;;;;;;16.52;11.02;;;;;;;;;;4661973;28;10000163;-61
2022/06/24 12:07:43;;;;;;;16.30;11.27;;;;;;;;;;5001783;28;20045;-62
2022/06/24 12:10:09;;;;;;;15.98;11.85;;;;;;;;;;5010691;28;20509;-60
2022/06/24 12:12:36;;;;;;;16.30;11.55;;;;;;;;;;5007706;28;20106;-61
2022/06/24 12:15:03;;;;;;;16.33;11.38;;;;;;;;;;4995263;28;20661;-62
2022/06/24 12:17:29;;;;;;;16.15;10.45;;;;;;;;;;4999362;28;20042;-59
2022/06/24 12:19:56;;;;;;;17.88;11.27;;;;;;;;;;5002253;28;20470;-61
2022/06/24 12:22:22;;;;;;;16.30;11.50;;;;;;;;;;4998245;28;20029;-61
2022/06/24 12:25:00;;;;;;;16.10;12.15;;;;;;;;;;4999756;28;20095;-61
2022/06/24 12:27:36;;;;;;;17.63;11.35;;;;;;;;;;4999788;28;20022;-60
2022/06/24 12:30:03;;;;;;;16.15;11.80;;;;;;;;;;4999956;28;20161;-58
2022/06/24 12:32:48;;;;;;;15.93;11.15;;;;;;;;;;5008693;28;20081;-59
2022/06/24 12:35:14;;;;;;;15.63;11.80;;;;;;;;;;5005063;28;20070;-60
2022/06/24 12:37:51;;;;;;;16.27;12.02;;;;;;;;;;5008004;28;20018;-62
2022/06/24 12:40:23;;;;;;;16.85;12.32;;;;;;;;;;5011886;28;20037;-60
2022/06/24 12:43:04;;;;;;;18.02;12.60;;;;;;;;;;5011447;28;20049;-60
2022/06/24 12:45:34;;;;;;;15.63;11.35;;;;;;;;;;5013629;28;20026;-60
2022/06/24 12:50:55;;;;;;;16.88;11.60;;;;;;;;;;5013413;28;20036;-60
2022/06/24 12:53:21;;;;;;;15.43;11.00;;;;;;;;;;4663823;28;9999993;-60
2022/06/24 12:55:47;;;;;;;15.00;10.77;;;;;;;;;;4992396;28;20021;-58
2022/06/24 12:58:13;;;;;;;16.20;11.57;;;;;;;;;;5009376;28;20076;-59
2022/06/24 13:00:39;;;;;;;16.98;12.57;;;;;;;;;;5006021;28;20081;-60
2022/06/24 13:03:05;;;;;;;17.58;12.60;;;;;;;;;;5007547;28;20042;-60
2022/06/24 13:05:31;;;;;;;16.85;11.55;;;;;;;;;;4992026;28;20053;-60
2022/06/24 13:07:57;;;;;;;15.85;11.77;;;;;;;;;;4991508;28;20065;-60
2022/06/24 13:10:23;;;;;;;17.95;11.63;;;;;;;;;;5009310;28;20022;-57
2022/06/24 13:12:50;;;;;;;16.75;11.60;;;;;;;;;;4991749;28;20397;-60
2022/06/24 13:15:17;;;;;;;15.27;11.30;;;;;;;;;;5008556;28;20486;-60
2022/06/24 13:17:43;;;;;;;15.30;11.32;;;;;;;;;;5010359;28;20053;-58
2022/06/24 13:20:12;;;;;;;15.68;11.07;;;;;;;;;;5013054;28;20481;-62
2022/06/24 13:22:39;;;;;;;15.38;10.90;;;;;;;;;;5011508;28;20029;-62
2022/06/24 13:25:05;;;;;;;15.98;11.20;;;;;;;;;;5012802;28;20045;-62
2022/06/24 13:27:31;;;;;;;18.45;11.40;;;;;;;;;;5011322;28;20096;-63
2022/06/24 13:29:58;;;;;;;15.55;10.95;;;;;;;;;;5012556;28;20164;-63
2022/06/24 13:32:24;;;;;;;16.67;11.07;;;;;;;;;;5013210;28;20022;-63
2022/06/24 13:34:50;;;;;;;15.95;11.20;;;;;;;;;;5013000;28;20394;-63
2022/06/24 13:37:16;;;;;;;14.98;11.27;;;;;;;;;;5012147;28;20041;-62
2022/06/24 13:39:42;;;;;;;16.55;11.40;;;;;;;;;;4995341;28;20033;-63
2022/06/24 13:42:08;;;;;;;16.73;12.55;;;;;;;;;;5013029;28;20098;-62
2022/06/24 13:44:35;;;;;;;15.43;11.73;;;;;;;;;;5012546;28;20026;-63
2022/06/24 13:47:02;;;;;;;16.85;12.45;;;;;;;;;;5012253;28;20026;-62
2022/06/24 13:49:28;;;;;;;15.50;11.90;;;;;;;;;;5012095;28;20026;-63
2022/06/24 13:51:54;;;;;;;16.80;12.07;;;;;;;;;;5012660;28;20018;-62
2022/06/24 13:54:20;;;;;;;18.02;12.20;;;;;;;;;;5012349;28;20029;-60
2022/06/24 13:56:46;;;;;;;16.50;11.93;;;;;;;;;;5012138;28;20025;-62
2022/06/24 13:59:15;;;;;;;17.15;12.23;;;;;;;;;;5011591;28;20033;-62
2022/06/24 14:01:41;;;;;;;15.68;12.00;;;;;;;;;;5012666;28;20080;-61
2022/06/24 14:04:07;;;;;;;15.20;11.70;;;;;;;;;;5012697;28;20030;-61
2022/06/24 14:06:33;;;;;;;16.20;11.98;;;22.60;75.70;;;;;;5012591;28;20026;-62
2022/06/24 14:08:59;;;;;;;15.80;11.75;;;;;;;;;;5011671;28;20026;-63
2022/06/24 14:11:25;;;;;;;15.65;11.73;;;34.50;89.00;;;;;;5010404;28;20072;-62
2022/06/24 14:13:51;;;;;;;17.33;12.30;;;31.30;91.30;;;;;;4663246;28;10000007;-62
2022/06/24 14:16:16;;;;;;;16.05;12.05;;;32.00;91.50;;;;;;5008980;28;20030;-63
2022/06/24 14:18:42;;;;;;;16.55;12.55;;;32.70;91.10;;;;;;5007994;28;20113;-63
2022/06/24 14:21:08;;;;;;;17.02;11.93;;;31.50;91.80;;;;;;4991061;28;20025;-62
2022/06/24 14:26:20;;;;;;;15.68;12.05;;;33.40;91.10;;;;;;5009182;28;20040;-61